createdAt,value
2023-02-24T00:00:53.212Z,73.7
2023-02-24T00:01:57.164Z,73.3
2023-02-24T00:02:59.715Z,73.4
2023-02-24T00:04:03.183Z,74
2023-02-24T00:05:05.316Z,73.8
2023-02-24T00:06:07.896Z,74.3
2023-02-24T00:07:11.042Z,74.9
2023-02-24T00:08:13.415Z,74.4
2023-02-24T00:09:16.939Z,73.3
2023-02-24T00:10:20.577Z,72.7
2023-02-24T00:11:24.158Z,72.8
2023-02-24T00:12:27.459Z,72.9
2023-02-24T00:13:30.993Z,72.7
2023-02-24T00:14:33.803Z,72.9
2023-02-24T00:15:37.404Z,72.8
2023-02-24T00:16:41.465Z,73.2
2023-02-24T00:17:45.291Z,72.3
2023-02-24T00:18:48.700Z,73.2
2023-02-24T00:19:51.982Z,72.8
2023-02-24T00:20:54.761Z,72.3
2023-02-24T00:21:58.196Z,72.5
2023-02-24T00:23:01.925Z,72.5
2023-02-24T00:24:05.053Z,71.6
2023-02-24T00:25:07.215Z,72.1
2023-02-24T00:26:10.734Z,72.1
2023-02-24T00:27:13.818Z,72.5
2023-02-24T00:28:16.924Z,72.2
2023-02-24T00:29:20.746Z,72.4
2023-02-24T00:30:24.222Z,72
2023-02-24T00:31:27.911Z,72.1
2023-02-24T00:32:33.133Z,72.9
2023-02-24T00:33:36.475Z,72.8
2023-02-24T00:34:39.227Z,72.7
2023-02-24T00:35:41.445Z,72.2
2023-02-24T00:36:44.163Z,72.5
2023-02-24T00:37:47.881Z,72
2023-02-24T00:38:50.900Z,72.2
2023-02-24T00:39:53.914Z,72.9
2023-02-24T00:40:57.286Z,72.8
2023-02-24T00:42:00.724Z,72.8
2023-02-24T00:43:03.227Z,72.6
2023-02-24T00:44:06.256Z,72.4
2023-02-24T00:45:10.045Z,72.9
2023-02-24T00:46:13.370Z,73.1
2023-02-24T00:47:17.497Z,73.3
2023-02-24T00:48:20.952Z,73.5
2023-02-24T00:49:24.629Z,73.3
2023-02-24T00:50:27.728Z,73.4
2023-02-24T00:51:31.094Z,74.1
2023-02-24T00:52:34.192Z,73.1
2023-02-24T00:53:37.386Z,72.9
2023-02-24T00:54:40.125Z,73.4
2023-02-24T00:55:42.842Z,73.3
2023-02-24T00:56:45.363Z,72.8
2023-02-24T00:57:48.530Z,72.2
2023-02-24T00:58:51.600Z,72.2
2023-02-24T00:59:55.361Z,72.2
2023-02-24T01:00:58.963Z,72.2
2023-02-24T01:02:02.532Z,72.6
2023-02-24T01:03:05.158Z,73.2
2023-02-24T01:04:08.764Z,72.8
2023-02-24T01:05:11.983Z,72.1
2023-02-24T01:06:15.450Z,72.2
2023-02-24T01:07:18.491Z,72.4
2023-02-24T01:08:21.548Z,73.2
2023-02-24T01:09:24.649Z,73.8
2023-02-24T01:10:27.691Z,73.5
2023-02-24T01:11:31.138Z,72.3
2023-02-24T01:12:34.145Z,72.2
2023-02-24T01:13:37.293Z,72.7
2023-02-24T01:14:41.024Z,72.9
2023-02-24T01:15:44.153Z,71.8
2023-02-24T01:16:48.426Z,71.6
2023-02-24T01:17:51.638Z,72.2
2023-02-24T01:18:55.374Z,72.6
2023-02-24T01:19:58.553Z,72.2
2023-02-24T01:21:02.263Z,72
2023-02-24T01:22:05.606Z,71.3
2023-02-24T01:23:08.801Z,71.6
2023-02-24T01:24:11.271Z,72
2023-02-24T01:25:14.189Z,72.7
2023-02-24T01:26:17.268Z,72.2
2023-02-24T01:27:20.458Z,71.5
2023-02-24T01:28:22.909Z,71.8
2023-02-24T01:29:26.295Z,71.8
2023-02-24T01:30:29.625Z,72.1
2023-02-24T01:31:33.647Z,72.5
2023-02-24T01:32:38.914Z,71.9
2023-02-24T01:33:42.832Z,71.5
2023-02-24T01:34:45.874Z,71.6
2023-02-24T01:35:48.598Z,72
2023-02-24T01:36:52.230Z,72.1
2023-02-24T01:37:55.133Z,71.8
2023-02-24T01:38:58.191Z,71.8
2023-02-24T01:40:01.257Z,71.8
2023-02-24T01:41:03.696Z,71.8
2023-02-24T01:42:06.741Z,72.1
2023-02-24T01:43:09.817Z,72.2
2023-02-24T01:44:12.556Z,71.9
2023-02-24T01:45:15.401Z,71.5
2023-02-24T01:46:18.974Z,71.7
2023-02-24T01:47:22.701Z,72.1
2023-02-24T01:48:26.253Z,71.8
2023-02-24T01:49:30.873Z,72
2023-02-24T01:50:34.087Z,72
2023-02-24T01:51:37.470Z,72.6
2023-02-24T01:52:40.203Z,72.6
2023-02-24T01:53:43.264Z,72.8
2023-02-24T01:54:45.791Z,73.5
2023-02-24T01:55:49.482Z,72.8
2023-02-24T01:56:52.252Z,72.3
2023-02-24T01:57:55.326Z,72.2
2023-02-24T01:58:58.388Z,72.2
2023-02-24T02:00:01.183Z,73.2
2023-02-24T02:01:03.805Z,73.1
2023-02-24T02:02:08.079Z,73.1
2023-02-24T02:03:12.644Z,72.8
2023-02-24T02:04:16.786Z,72.6
2023-02-24T02:05:20.556Z,72.5
2023-02-24T02:06:23.224Z,72.9
2023-02-24T02:07:26.334Z,73.2
2023-02-24T02:08:28.918Z,73.5
2023-02-24T02:09:31.637Z,73.9
2023-02-24T02:10:35.309Z,73.4
2023-02-24T02:11:38.096Z,73.5
2023-02-24T02:12:40.528Z,73.7
2023-02-24T02:13:43.894Z,73.6
2023-02-24T02:14:47.917Z,73.7
2023-02-24T02:15:51.279Z,73.9
2023-02-24T02:16:55.032Z,74
2023-02-24T02:17:58.076Z,74.1
2023-02-24T02:19:01.864Z,74.2
2023-02-24T02:20:05.709Z,74.3
2023-02-24T02:21:08.520Z,74.3
2023-02-24T02:22:11.049Z,74.4
2023-02-24T02:23:14.037Z,74.7
2023-02-24T02:24:17.450Z,74.8
2023-02-24T02:25:20.626Z,75.2
2023-02-24T02:26:23.361Z,75.2
2023-02-24T02:27:26.412Z,75.3
2023-02-24T02:28:29.134Z,75.3
2023-02-24T02:29:32.196Z,75.3
2023-02-24T02:30:35.810Z,75.5
2023-02-24T02:31:40.193Z,75.8
2023-02-24T02:32:43.950Z,76
2023-02-24T02:33:48.362Z,76
2023-02-24T02:34:52.419Z,76
2023-02-24T02:35:56.305Z,76.2
2023-02-24T02:37:00.023Z,76.3
2023-02-24T02:38:03.024Z,76.5
2023-02-24T02:39:05.808Z,76.9
2023-02-24T02:40:09.574Z,76.7
2023-02-24T02:41:13.108Z,76.5
2023-02-24T02:42:16.764Z,77
2023-02-24T02:43:20.447Z,77.2
2023-02-24T02:44:23.072Z,77.1
2023-02-24T02:45:26.318Z,77.2
2023-02-24T02:46:29.792Z,77.2
2023-02-24T02:47:33.536Z,77.3
2023-02-24T02:48:36.707Z,77.5
2023-02-24T02:49:39.913Z,77.5
2023-02-24T02:50:42.693Z,77.5
2023-02-24T02:51:46.375Z,77.5
2023-02-24T02:52:49.804Z,77.6
2023-02-24T02:53:52.063Z,77.8
2023-02-24T02:54:54.601Z,77.8
2023-02-24T02:55:58.356Z,77.8
2023-02-24T02:57:01.864Z,77.9
2023-02-24T02:58:05.687Z,78
2023-02-24T02:59:08.808Z,78
2023-02-24T03:00:11.564Z,78.2
2023-02-24T03:01:14.942Z,78.4
2023-02-24T03:02:18.603Z,78.7
2023-02-24T03:03:22.264Z,79
2023-02-24T03:04:25.815Z,79.2
2023-02-24T03:05:28.707Z,79.4
2023-02-24T03:06:31.633Z,79.4
2023-02-24T03:07:35.822Z,79.6
2023-02-24T03:08:39.173Z,79.5
2023-02-24T03:09:42.876Z,79.5
2023-02-24T03:10:45.772Z,79.3
2023-02-24T03:11:49.215Z,79.5
2023-02-24T03:12:52.724Z,79.4
2023-02-24T03:13:56.071Z,79.4
2023-02-24T03:14:58.560Z,79.4
2023-02-24T03:16:01.674Z,79.3
2023-02-24T03:17:04.778Z,79.3
2023-02-24T03:18:07.230Z,79.3
2023-02-24T03:19:10.332Z,79.3
2023-02-24T03:20:13.243Z,79.1
2023-02-24T03:21:16.173Z,79.3
2023-02-24T03:22:19.880Z,79.4
2023-02-24T03:23:23.786Z,79.4
2023-02-24T03:24:27.217Z,79.5
2023-02-24T03:25:30.053Z,79.5
2023-02-24T03:26:32.990Z,79.4
2023-02-24T03:27:36.322Z,79.3
2023-02-24T03:28:39.510Z,79.2
2023-02-24T03:29:42.045Z,79.2
2023-02-24T03:30:44.857Z,79.2
2023-02-24T03:31:48.588Z,79.3
2023-02-24T03:32:52.818Z,79.1
2023-02-24T03:33:56.104Z,79.5
2023-02-24T03:34:59.189Z,79.3
2023-02-24T03:36:02.583Z,79.4
2023-02-24T03:37:05.951Z,79.3
2023-02-24T03:38:09.173Z,79.6
2023-02-24T03:39:13.562Z,79.8
2023-02-24T03:40:17.252Z,79.6
2023-02-24T03:41:21.703Z,79.8
2023-02-24T03:42:25.336Z,79.6
2023-02-24T03:43:28.116Z,79.8
2023-02-24T03:44:30.914Z,79.9
2023-02-24T03:45:34.524Z,79.9
2023-02-24T03:46:38.039Z,79.9
2023-02-24T03:47:41.084Z,79.8
2023-02-24T03:48:44.829Z,79.6
2023-02-24T03:49:47.393Z,79.7
2023-02-24T03:50:50.873Z,80
2023-02-24T03:51:54.293Z,80.2
2023-02-24T03:52:57.639Z,80.4
2023-02-24T03:54:00.390Z,80.5
2023-02-24T03:55:04.524Z,80.7
2023-02-24T03:56:07.863Z,80.9
2023-02-24T03:57:10.916Z,81
2023-02-24T03:58:14.274Z,81
2023-02-24T03:59:17.692Z,81.1
2023-02-24T04:00:20.425Z,81.1
2023-02-24T04:01:24.350Z,81
2023-02-24T04:02:27.942Z,81.3
2023-02-24T04:03:30.958Z,81.3
2023-02-24T04:04:34.857Z,81.5
2023-02-24T04:05:37.857Z,81.7
2023-02-24T04:06:40.672Z,81.8
2023-02-24T04:07:44.294Z,82
2023-02-24T04:08:47.439Z,82.2
2023-02-24T04:09:50.005Z,82.2
2023-02-24T04:10:54.328Z,82.1
2023-02-24T04:11:57.400Z,82.5
2023-02-24T04:13:01.074Z,82.6
2023-02-24T04:14:04.186Z,82.6
2023-02-24T04:15:06.550Z,82.8
2023-02-24T04:16:09.631Z,82.7
2023-02-24T04:17:12.856Z,82.9
2023-02-24T04:18:16.275Z,83.8
2023-02-24T04:19:19.124Z,84.1
2023-02-24T04:20:22.766Z,84
2023-02-24T04:21:26.287Z,84.5
2023-02-24T04:22:29.000Z,84
2023-02-24T04:23:31.829Z,83.9
2023-02-24T04:24:35.330Z,84.1
2023-02-24T04:25:38.410Z,83.9
2023-02-24T04:26:42.261Z,83.6
2023-02-24T04:27:45.582Z,83.4
2023-02-24T04:28:48.004Z,83.2
2023-02-24T04:29:51.808Z,83.3
2023-02-24T04:30:56.207Z,83.4
2023-02-24T04:32:00.096Z,83.4
2023-02-24T04:33:03.199Z,83.4
2023-02-24T04:34:06.590Z,83.5
2023-02-24T04:35:09.500Z,83.6
2023-02-24T04:36:12.621Z,83.6
2023-02-24T04:37:15.332Z,83.7
2023-02-24T04:38:18.168Z,83.6
2023-02-24T04:39:21.094Z,83.6
2023-02-24T04:40:23.657Z,83.8
2023-02-24T04:41:26.693Z,83.8
2023-02-24T04:42:30.208Z,83.6
2023-02-24T04:43:33.947Z,83.7
2023-02-24T04:44:36.833Z,83.5
2023-02-24T04:45:39.978Z,83.6
2023-02-24T04:46:43.380Z,83.5
2023-02-24T04:47:45.815Z,83.4
2023-02-24T04:48:48.646Z,83.5
2023-02-24T04:49:51.509Z,83.8
2023-02-24T04:50:54.225Z,84
2023-02-24T04:51:56.654Z,83.7
2023-02-24T04:52:59.748Z,83.7
2023-02-24T04:54:02.752Z,83.9
2023-02-24T04:55:06.769Z,84
2023-02-24T04:56:10.822Z,84
2023-02-24T04:57:13.468Z,84.1
2023-02-24T04:58:17.289Z,83.9
2023-02-24T04:59:20.750Z,84
2023-02-24T05:00:24.163Z,84
2023-02-24T05:01:27.660Z,84.1
2023-02-24T05:02:30.553Z,84.2
2023-02-24T05:03:33.466Z,84.3
2023-02-24T05:04:36.414Z,83.9
2023-02-24T05:05:39.752Z,83.9
2023-02-24T05:06:43.026Z,84
2023-02-24T05:07:45.825Z,84.1
2023-02-24T05:08:48.900Z,83.9
2023-02-24T05:09:52.012Z,83.7
2023-02-24T05:10:55.101Z,83.7
2023-02-24T05:11:57.900Z,83.7
2023-02-24T05:13:03.431Z,83.5
2023-02-24T05:14:07.515Z,83.2
2023-02-24T05:15:10.754Z,83.2
2023-02-24T05:16:13.463Z,83.1
2023-02-24T05:17:17.123Z,83.3
2023-02-24T05:18:19.850Z,83.4
2023-02-24T05:19:23.601Z,83.4
2023-02-24T05:20:27.210Z,82.9
2023-02-24T05:21:31.260Z,83.1
2023-02-24T05:22:34.158Z,83.2
2023-02-24T05:23:37.211Z,83.5
2023-02-24T05:24:40.042Z,83
2023-02-24T05:25:42.598Z,82.8
2023-02-24T05:26:45.526Z,82.3
2023-02-24T05:27:48.616Z,82.5
2023-02-24T05:28:52.038Z,82.5
2023-02-24T05:29:56.992Z,82.3
2023-02-24T05:31:00.826Z,82.2
2023-02-24T05:32:04.746Z,82.2
2023-02-24T05:33:08.690Z,82.3
2023-02-24T05:34:11.331Z,82.1
2023-02-24T05:35:14.315Z,81.8
2023-02-24T05:36:17.393Z,81.8
2023-02-24T05:37:20.305Z,82
2023-02-24T05:38:23.022Z,81.8
2023-02-24T05:39:26.109Z,81.6
2023-02-24T05:40:29.623Z,81.7
2023-02-24T05:41:32.668Z,81.5
2023-02-24T05:42:35.786Z,81.4
2023-02-24T05:43:38.541Z,81.6
2023-02-24T05:44:42.342Z,81.6
2023-02-24T05:45:46.508Z,81.5
2023-02-24T05:46:49.866Z,81.5
2023-02-24T05:47:53.642Z,81.4
2023-02-24T05:48:56.339Z,81
2023-02-24T05:50:00.129Z,81.1
2023-02-24T05:51:06.297Z,81.1
2023-02-24T05:52:10.350Z,81.1
2023-02-24T05:53:13.059Z,80.9
2023-02-24T05:54:16.469Z,81
2023-02-24T05:55:19.814Z,81.1
2023-02-24T05:56:22.687Z,80.8
2023-02-24T05:57:25.468Z,80.8
2023-02-24T05:58:28.574Z,80.8
2023-02-24T05:59:31.438Z,81
2023-02-24T06:00:34.917Z,80.8
2023-02-24T06:01:39.021Z,80.7
2023-02-24T06:02:42.505Z,80.6
2023-02-24T06:03:45.826Z,80.5
2023-02-24T06:04:49.181Z,80.3
2023-02-24T06:05:52.053Z,80
2023-02-24T06:06:54.765Z,80.1
2023-02-24T06:07:57.820Z,80.2
2023-02-24T06:09:00.312Z,80.1
2023-02-24T06:10:03.153Z,80.2
2023-02-24T06:11:06.611Z,80.3
2023-02-24T06:12:10.045Z,80.2
2023-02-24T06:13:13.252Z,80.2
2023-02-24T06:14:16.825Z,80.1
2023-02-24T06:15:20.179Z,80.3
2023-02-24T06:16:23.429Z,80.2
2023-02-24T06:17:27.786Z,80
2023-02-24T06:18:31.018Z,79.9
2023-02-24T06:19:33.795Z,79.9
2023-02-24T06:20:38.004Z,80
2023-02-24T06:21:41.625Z,80
2023-02-24T06:22:44.427Z,80.1
2023-02-24T06:23:47.213Z,79.9
2023-02-24T06:24:50.405Z,80.2
2023-02-24T06:25:53.159Z,80.3
2023-02-24T06:26:56.810Z,80
2023-02-24T06:28:00.171Z,80.1
2023-02-24T06:29:02.975Z,80.1
2023-02-24T06:30:05.722Z,80.7
2023-02-24T06:31:08.646Z,80.5
2023-02-24T06:32:12.460Z,80.4
2023-02-24T06:33:16.570Z,80.6
2023-02-24T06:34:20.219Z,80.7
2023-02-24T06:35:23.896Z,80.6
2023-02-24T06:36:25.849Z,80.6
2023-02-24T06:37:29.462Z,80.2
2023-02-24T06:38:32.617Z,80.2
2023-02-24T06:39:37.907Z,80.3
2023-02-24T06:40:41.234Z,80.4
2023-02-24T06:41:44.695Z,80.2
2023-02-24T06:42:48.157Z,80.2
2023-02-24T06:43:51.297Z,80.2
2023-02-24T06:44:54.970Z,80.5
2023-02-24T06:45:58.854Z,80.8
2023-02-24T06:47:01.391Z,81
2023-02-24T06:48:03.907Z,80.9
2023-02-24T06:49:07.729Z,80.9
2023-02-24T06:50:11.434Z,80.9
2023-02-24T06:51:15.585Z,81
2023-02-24T06:52:20.001Z,81
2023-02-24T06:53:23.464Z,81.1
2023-02-24T06:54:25.969Z,81.5
2023-02-24T06:55:28.956Z,81.5
2023-02-24T06:56:33.662Z,81.1
2023-02-24T06:57:37.411Z,81.2
2023-02-24T06:58:39.485Z,81.3
2023-02-24T06:59:42.553Z,81.7
2023-02-24T07:00:45.652Z,81.8
2023-02-24T07:01:48.846Z,82
2023-02-24T07:02:52.359Z,82.2
2023-02-24T07:03:55.937Z,81.9
2023-02-24T07:04:59.962Z,82
2023-02-24T07:06:03.101Z,81.9
2023-02-24T07:07:06.574Z,81.9
2023-02-24T07:08:08.800Z,81.9
2023-02-24T07:09:11.869Z,82
2023-02-24T07:10:14.369Z,81.9
2023-02-24T07:11:17.437Z,82
2023-02-24T07:12:21.814Z,82.3
2023-02-24T07:13:24.705Z,82.6
2023-02-24T07:14:27.818Z,82.8
2023-02-24T07:15:30.926Z,83.1
2023-02-24T07:16:33.873Z,83.8
2023-02-24T07:17:37.693Z,83.8
2023-02-24T07:18:41.450Z,84.4
2023-02-24T07:19:44.258Z,84.6
2023-02-24T07:20:48.473Z,85
2023-02-24T07:21:51.862Z,85.2
2023-02-24T07:22:54.991Z,85.5
2023-02-24T07:24:00.432Z,85.6
2023-02-24T07:25:03.441Z,85.7
2023-02-24T07:26:07.227Z,86.3
2023-02-24T07:27:10.961Z,86.7
2023-02-24T07:28:14.306Z,86.5
2023-02-24T07:29:17.668Z,86.6
2023-02-24T07:30:21.068Z,87
2023-02-24T07:31:26.685Z,87.5
2023-02-24T07:32:30.747Z,88.1
2023-02-24T07:33:33.295Z,87.9
2023-02-24T07:34:36.600Z,87.7
2023-02-24T07:35:42.481Z,88
2023-02-24T07:36:46.284Z,88.3
2023-02-24T07:37:49.084Z,88.7
2023-02-24T07:38:52.171Z,89.2
2023-02-24T07:39:55.223Z,89.4
2023-02-24T07:40:58.629Z,89.8
2023-02-24T07:42:01.537Z,90.2
2023-02-24T07:43:04.910Z,90.3
2023-02-24T07:44:07.066Z,90.6
2023-02-24T07:45:10.542Z,90.6
2023-02-24T07:46:13.954Z,91.2
2023-02-24T07:47:17.380Z,90.9
2023-02-24T07:48:20.545Z,91.2
2023-02-24T07:49:23.301Z,91.7
2023-02-24T07:50:26.657Z,91.3
2023-02-24T07:51:30.036Z,91.3
2023-02-24T07:52:34.175Z,91.5
2023-02-24T07:53:37.536Z,91.6
2023-02-24T07:54:41.180Z,92.2
2023-02-24T07:55:43.783Z,91.9
2023-02-24T07:56:46.301Z,92.1
2023-02-24T07:57:49.753Z,92
2023-02-24T07:58:53.103Z,92.3
2023-02-24T07:59:56.395Z,92.5
2023-02-24T08:00:59.107Z,92.6
2023-02-24T08:02:02.508Z,92.8
2023-02-24T08:03:05.977Z,93
2023-02-24T08:04:08.815Z,93.1
2023-02-24T08:05:12.558Z,93.2
2023-02-24T08:06:15.388Z,93.6
2023-02-24T08:07:18.636Z,93.7
2023-02-24T08:08:22.604Z,94
2023-02-24T08:09:25.985Z,94.4
2023-02-24T08:10:29.462Z,94.5
2023-02-24T08:11:33.083Z,94.3
2023-02-24T08:12:36.890Z,94.2
2023-02-24T08:13:39.900Z,93.9
2023-02-24T08:14:43.233Z,94.1
2023-02-24T08:15:46.609Z,94.5
2023-02-24T08:16:50.043Z,95
2023-02-24T08:17:53.806Z,95.1
2023-02-24T08:18:57.246Z,95.2
2023-02-24T08:20:00.670Z,94.9
2023-02-24T08:21:04.418Z,94.9
2023-02-24T08:22:07.923Z,95.3
2023-02-24T08:23:11.041Z,95.4
2023-02-24T08:24:15.216Z,95.8
2023-02-24T08:25:19.675Z,95.9
2023-02-24T08:26:22.922Z,95.7
2023-02-24T08:27:26.289Z,95.7
2023-02-24T08:28:29.983Z,96
2023-02-24T08:29:33.172Z,96
2023-02-24T08:30:36.739Z,96.3
2023-02-24T08:31:40.710Z,96.2
2023-02-24T08:32:44.975Z,96.1
2023-02-24T08:33:48.192Z,96
2023-02-24T08:34:51.229Z,95.8
2023-02-24T08:35:54.715Z,95.9
2023-02-24T08:36:58.082Z,96.3
2023-02-24T08:38:01.506Z,96.2
2023-02-24T08:39:04.434Z,96.2
2023-02-24T08:40:08.293Z,96.6
2023-02-24T08:41:11.766Z,96.5
2023-02-24T08:42:14.643Z,96.9
2023-02-24T08:43:17.898Z,97.2
2023-02-24T08:44:20.438Z,97.5
2023-02-24T08:45:22.734Z,97.4
2023-02-24T08:46:26.790Z,97.7
2023-02-24T08:47:31.079Z,97.8
2023-02-24T08:48:33.960Z,97.9
2023-02-24T08:49:36.769Z,98
2023-02-24T08:50:40.213Z,98.2
2023-02-24T08:51:43.210Z,98.6
2023-02-24T08:52:46.160Z,99
2023-02-24T08:53:48.868Z,99.1
2023-02-24T08:54:52.015Z,99.1
2023-02-24T08:55:55.831Z,99.2
2023-02-24T08:56:59.532Z,99.2
2023-02-24T08:58:03.117Z,99.2
2023-02-24T08:59:07.292Z,99.2
2023-02-24T09:00:10.434Z,99.1
2023-02-24T09:01:13.854Z,98.8
2023-02-24T09:02:17.794Z,99.1
2023-02-24T09:03:21.671Z,99.1
2023-02-24T09:04:25.044Z,99.2
2023-02-24T09:05:29.152Z,99.4
2023-02-24T09:06:32.409Z,99.2
2023-02-24T09:07:36.017Z,99.3
2023-02-24T09:08:39.716Z,99.3
2023-02-24T09:09:43.692Z,99.5
2023-02-24T09:10:47.205Z,99.7
2023-02-24T09:11:51.062Z,99.7
2023-02-24T09:12:54.806Z,99.6
2023-02-24T09:13:57.632Z,99.7
2023-02-24T09:15:01.942Z,99.9
2023-02-24T09:16:05.847Z,99.8
2023-02-24T09:17:08.467Z,99.8
2023-02-24T09:18:11.815Z,100
2023-02-24T09:19:14.558Z,99.9
2023-02-24T09:20:18.070Z,99.8
2023-02-24T09:21:23.398Z,99.8
2023-02-24T09:22:26.298Z,99.8
2023-02-24T09:23:28.448Z,100
2023-02-24T09:24:31.551Z,100
2023-02-24T09:25:34.971Z,100
2023-02-24T09:26:37.729Z,100
2023-02-24T09:27:41.491Z,100
2023-02-24T09:28:45.870Z,100
2023-02-24T09:29:49.876Z,100
2023-02-24T09:30:53.065Z,100
2023-02-24T09:31:57.568Z,100
2023-02-24T09:33:02.674Z,100
2023-02-24T09:34:06.572Z,100
2023-02-24T09:35:10.136Z,100
2023-02-24T09:36:13.102Z,100
2023-02-24T09:37:16.625Z,100
2023-02-24T09:38:19.173Z,100
2023-02-24T09:39:22.845Z,100
2023-02-24T09:40:26.631Z,100
2023-02-24T09:41:30.750Z,100
2023-02-24T09:42:38.322Z,100
2023-02-24T09:43:42.093Z,100
2023-02-24T09:44:45.555Z,100
2023-02-24T09:45:49.149Z,100
2023-02-24T09:46:53.804Z,100
2023-02-24T09:47:58.084Z,100
2023-02-24T09:49:01.420Z,100
2023-02-24T09:50:05.158Z,100
2023-02-24T09:51:08.493Z,100
2023-02-24T09:52:11.860Z,100
2023-02-24T09:53:15.604Z,100
2023-02-24T09:54:19.331Z,100
2023-02-24T09:55:22.739Z,100
2023-02-24T09:56:26.735Z,100
2023-02-24T09:57:29.775Z,100
2023-02-24T09:58:45.466Z,100
2023-02-24T09:59:50.381Z,100
2023-02-24T10:00:54.168Z,100
2023-02-24T10:01:57.811Z,100
2023-02-24T10:03:01.423Z,100
2023-02-24T10:04:22.390Z,100
2023-02-24T10:05:26.510Z,100
2023-02-24T10:06:29.672Z,100
2023-02-24T10:07:32.703Z,100
2023-02-24T10:08:35.524Z,100
2023-02-24T10:09:39.263Z,100
2023-02-24T10:10:42.251Z,100
2023-02-24T10:11:45.349Z,100
2023-02-24T10:12:51.806Z,100
2023-02-24T10:13:55.314Z,100
2023-02-24T10:15:02.060Z,100
2023-02-24T10:16:08.661Z,100
2023-02-24T10:17:12.064Z,100
2023-02-24T10:18:15.176Z,100
2023-02-24T10:19:18.358Z,100
2023-02-24T10:20:21.163Z,100
2023-02-24T10:21:24.362Z,100
2023-02-24T10:22:28.144Z,100
2023-02-24T10:23:31.004Z,100
2023-02-24T10:24:34.375Z,100
2023-02-24T10:25:37.763Z,100
2023-02-24T10:27:07.675Z,100
2023-02-24T10:28:19.903Z,100
2023-02-24T10:29:23.390Z,100
2023-02-24T10:30:27.744Z,100
2023-02-24T10:31:31.915Z,100
2023-02-24T10:32:35.609Z,100
2023-02-24T10:33:39.613Z,100
2023-02-24T10:34:42.516Z,100
2023-02-24T10:35:45.518Z,100
2023-02-24T10:36:49.060Z,100
2023-02-24T10:37:52.692Z,100
2023-02-24T10:38:55.795Z,100
2023-02-24T10:39:58.793Z,100
2023-02-24T10:41:02.290Z,100
2023-02-24T10:42:05.986Z,100
2023-02-24T10:43:09.225Z,100
2023-02-24T10:44:12.402Z,100
2023-02-24T10:45:23.382Z,100
2023-02-24T10:46:44.380Z,100
2023-02-24T10:47:48.968Z,100
2023-02-24T10:48:52.361Z,100
2023-02-24T10:49:55.822Z,100
2023-02-24T10:50:59.221Z,100
2023-02-24T10:52:02.054Z,100
2023-02-24T10:53:05.498Z,100
2023-02-24T10:54:08.578Z,100
2023-02-24T10:55:11.651Z,100
2023-02-24T10:56:14.805Z,100
2023-02-24T10:57:18.582Z,100
2023-02-24T10:58:21.931Z,100
2023-02-24T10:59:26.292Z,100
2023-02-24T11:00:29.434Z,100
2023-02-24T11:01:33.716Z,100
2023-02-24T11:02:36.971Z,100
2023-02-24T11:03:40.939Z,100
2023-02-24T11:04:44.393Z,100
2023-02-24T11:05:47.642Z,100
2023-02-24T11:06:51.006Z,100
2023-02-24T11:07:54.603Z,100
2023-02-24T11:08:57.605Z,100
2023-02-24T11:10:00.949Z,100
2023-02-24T11:11:04.942Z,100
2023-02-24T11:12:06.850Z,100
2023-02-24T11:13:11.653Z,100
2023-02-24T11:14:14.866Z,100
2023-02-24T11:15:17.986Z,100
2023-02-24T11:16:22.096Z,100
2023-02-24T11:17:26.495Z,100
2023-02-24T11:18:30.363Z,100
2023-02-24T11:19:32.945Z,100
2023-02-24T11:20:51.127Z,100
2023-02-24T11:21:55.084Z,100
2023-02-24T11:22:58.845Z,100
2023-02-24T11:24:03.017Z,100
2023-02-24T11:25:06.724Z,100
2023-02-24T11:26:10.152Z,100
2023-02-24T11:27:12.693Z,100
2023-02-24T11:28:15.970Z,100
2023-02-24T11:29:19.577Z,100
2023-02-24T11:30:23.704Z,100
2023-02-24T11:31:29.107Z,100
2023-02-24T11:32:34.379Z,100
2023-02-24T11:33:38.075Z,100
2023-02-24T11:34:41.222Z,100
2023-02-24T11:35:44.334Z,100
2023-02-24T11:36:47.709Z,100
2023-02-24T11:37:50.430Z,100
2023-02-24T11:38:53.738Z,100
2023-02-24T11:39:57.521Z,100
2023-02-24T11:41:00.922Z,100
2023-02-24T11:42:04.293Z,100
2023-02-24T11:43:08.344Z,100
2023-02-24T11:44:17.298Z,100
2023-02-24T11:45:20.584Z,100
2023-02-24T11:46:24.499Z,100
2023-02-24T11:47:27.414Z,100
2023-02-24T11:48:31.222Z,100
2023-02-24T11:49:35.322Z,100
2023-02-24T11:50:38.741Z,100
2023-02-24T11:51:42.001Z,100
2023-02-24T11:52:45.993Z,100
2023-02-24T11:53:49.330Z,100
2023-02-24T11:54:52.443Z,100
2023-02-24T11:55:54.903Z,100
2023-02-24T11:56:57.996Z,100
2023-02-24T11:58:00.809Z,100
2023-02-24T11:59:04.225Z,100
2023-02-24T12:00:07.879Z,100
2023-02-24T12:01:11.033Z,100
2023-02-24T12:02:14.290Z,100
2023-02-24T12:03:17.843Z,100
2023-02-24T12:04:22.559Z,100
2023-02-24T12:05:28.366Z,100
2023-02-24T12:06:31.844Z,100
2023-02-24T12:07:35.515Z,100
2023-02-24T12:08:38.680Z,99
2023-02-24T12:09:42.117Z,98.9
2023-02-24T12:10:45.565Z,99
2023-02-24T12:11:48.387Z,99.1
2023-02-24T12:12:51.536Z,99.3
2023-02-24T12:13:54.272Z,99.8
2023-02-24T12:14:57.551Z,99.7
2023-02-24T12:16:00.700Z,99.9
2023-02-24T12:17:04.235Z,99.6
2023-02-24T12:18:07.288Z,99.6
2023-02-24T12:19:10.477Z,99.6
2023-02-24T12:20:14.526Z,100
2023-02-24T12:21:17.778Z,100
2023-02-24T12:22:20.747Z,100
2023-02-24T12:23:24.296Z,100
2023-02-24T12:24:27.687Z,100
2023-02-24T12:25:31.048Z,100
2023-02-24T12:26:34.258Z,100
2023-02-24T12:27:37.132Z,100
2023-02-24T12:28:39.842Z,100
2023-02-24T12:29:43.355Z,100
2023-02-24T12:30:46.668Z,100
2023-02-24T12:31:51.496Z,100
2023-02-24T12:32:56.261Z,100
2023-02-24T12:33:59.721Z,100
2023-02-24T12:35:03.232Z,100
2023-02-24T12:36:07.084Z,100
2023-02-24T12:37:10.520Z,100
2023-02-24T12:38:13.975Z,99.8
2023-02-24T12:39:16.677Z,100
2023-02-24T12:40:20.060Z,100
2023-02-24T12:41:24.761Z,100
2023-02-24T12:42:28.206Z,100
2023-02-24T12:43:31.007Z,100
2023-02-24T12:44:33.810Z,100
2023-02-24T12:45:37.826Z,100
2023-02-24T12:46:41.670Z,100
2023-02-24T12:47:45.188Z,100
2023-02-24T12:48:48.566Z,100
2023-02-24T12:49:52.029Z,100
2023-02-24T12:50:56.226Z,100
2023-02-24T12:51:59.797Z,100
2023-02-24T12:53:02.862Z,100
2023-02-24T12:54:06.234Z,100
2023-02-24T12:55:09.630Z,99.9
2023-02-24T12:56:12.929Z,99.7
2023-02-24T12:57:15.925Z,99.8
2023-02-24T12:58:19.402Z,99.7
2023-02-24T12:59:23.784Z,100
2023-02-24T13:00:27.416Z,100
2023-02-24T13:01:31.412Z,100
2023-02-24T13:02:34.817Z,100
2023-02-24T13:03:38.313Z,99.8
2023-02-24T13:04:41.205Z,99.7
2023-02-24T13:05:44.346Z,99.7
2023-02-24T13:06:48.164Z,99.6
2023-02-24T13:07:52.339Z,99.2
2023-02-24T13:08:55.820Z,98.9
2023-02-24T13:09:59.602Z,99.2
2023-02-24T13:11:02.743Z,99.4
2023-02-24T13:12:06.435Z,99.5
2023-02-24T13:13:09.229Z,99.4
2023-02-24T13:14:12.596Z,99.7
2023-02-24T13:15:15.312Z,100
2023-02-24T13:16:18.798Z,100
2023-02-24T13:17:22.355Z,100
2023-02-24T13:18:26.080Z,99.7
2023-02-24T13:19:29.767Z,100
2023-02-24T13:20:32.870Z,100
2023-02-24T13:21:36.437Z,100
2023-02-24T13:22:39.774Z,100
2023-02-24T13:23:43.841Z,100
2023-02-24T13:24:47.123Z,100
2023-02-24T13:25:50.225Z,100
2023-02-24T13:26:53.641Z,100
2023-02-24T13:27:56.848Z,100
2023-02-24T13:28:59.932Z,100
2023-02-24T13:30:03.536Z,100
2023-02-24T13:31:07.365Z,100
2023-02-24T13:32:12.011Z,100
2023-02-24T13:33:15.752Z,100
2023-02-24T13:34:18.910Z,100
2023-02-24T13:35:22.344Z,100
2023-02-24T13:36:26.091Z,100
2023-02-24T13:37:29.080Z,100
2023-02-24T13:38:32.208Z,100
2023-02-24T13:39:35.976Z,100
2023-02-24T13:40:39.331Z,100
2023-02-24T13:41:42.451Z,100
2023-02-24T13:42:45.816Z,100
2023-02-24T13:43:48.923Z,100
2023-02-24T13:44:52.006Z,100
2023-02-24T13:45:55.861Z,100
2023-02-24T13:46:59.400Z,100
2023-02-24T13:48:03.941Z,100
2023-02-24T13:49:07.111Z,100
2023-02-24T13:50:11.021Z,100
2023-02-24T13:51:15.065Z,100
2023-02-24T13:52:18.511Z,100
2023-02-24T13:53:21.315Z,100
2023-02-24T13:54:25.087Z,100
2023-02-24T13:55:29.026Z,100
2023-02-24T13:56:32.593Z,100
2023-02-24T13:57:36.052Z,100
2023-02-24T13:58:39.687Z,100
2023-02-24T13:59:42.122Z,100
2023-02-24T14:00:45.225Z,100
2023-02-24T14:01:49.676Z,100
2023-02-24T14:02:53.548Z,100
2023-02-24T14:03:56.643Z,100
2023-02-24T14:05:00.043Z,100
2023-02-24T14:06:03.297Z,100
2023-02-24T14:07:06.940Z,100
2023-02-24T14:08:09.653Z,100
2023-02-24T14:09:13.390Z,100
2023-02-24T14:10:16.790Z,100
2023-02-24T14:11:21.807Z,100
2023-02-24T14:12:26.588Z,100
2023-02-24T14:13:30.189Z,100
2023-02-24T14:14:33.856Z,100
2023-02-24T14:15:36.956Z,100
2023-02-24T14:16:41.189Z,100
2023-02-24T14:17:45.167Z,100
2023-02-24T14:18:48.249Z,100